createdAt,value
2023-02-22T00:02:10.822Z,5.20
2023-02-22T00:04:39.746Z,5.25
2023-02-22T00:07:06.727Z,6.20
2023-02-22T00:09:33.485Z,5.18
2023-02-22T00:12:00.358Z,5.35
2023-02-22T00:14:27.561Z,6.82
2023-02-22T00:16:59.992Z,5.50
2023-02-22T00:19:28.140Z,5.90
2023-02-22T00:22:00.149Z,4.07
2023-02-22T00:24:26.932Z,6.32
2023-02-22T00:26:55.792Z,7.38
2023-02-22T00:29:23.437Z,5.15
2023-02-22T00:31:50.347Z,5.60
2023-02-22T00:34:17.770Z,5.72
2023-02-22T00:36:48.321Z,5.68
2023-02-22T00:39:16.851Z,6.43
2023-02-22T00:41:44.322Z,6.60
2023-02-22T00:44:11.736Z,5.60
2023-02-22T00:46:38.528Z,6.20
2023-02-22T00:49:05.349Z,6.40
2023-02-22T00:51:33.885Z,5.65
2023-02-22T00:54:00.648Z,6.05
2023-02-22T00:56:28.840Z,7.00
2023-02-22T00:58:55.685Z,6.25
2023-02-22T01:01:24.193Z,5.95
2023-02-22T01:03:51.114Z,6.32
2023-02-22T01:06:18.099Z,6.20
2023-02-22T01:08:45.911Z,6.43
2023-02-22T01:11:13.531Z,6.40
2023-02-22T01:13:42.001Z,5.38
2023-02-22T01:16:08.872Z,7.22
2023-02-22T01:18:39.853Z,6.75
2023-02-22T01:21:07.070Z,7.50
2023-02-22T01:23:33.932Z,7.55
2023-02-22T01:26:00.867Z,6.57
2023-02-22T01:28:29.152Z,7.63
2023-02-22T01:30:57.606Z,6.35
2023-02-22T01:33:25.635Z,7.20
2023-02-22T01:35:52.532Z,7.03
2023-02-22T01:38:19.364Z,5.05
2023-02-22T01:40:48.469Z,7.20
2023-02-22T01:43:19.423Z,7.53
2023-02-22T01:46:02.289Z,7.68
2023-02-22T01:48:42.260Z,7.40
2023-02-22T01:51:12.768Z,7.75
2023-02-22T01:53:47.519Z,8.18
2023-02-22T01:56:16.196Z,7.93
2023-02-22T01:58:48.570Z,7.80
2023-02-22T02:01:19.201Z,7.57
2023-02-22T02:03:46.367Z,8.05
2023-02-22T02:06:14.901Z,8.32
2023-02-22T02:08:51.769Z,7.10
2023-02-22T02:11:22.178Z,8.07
2023-02-22T02:13:51.812Z,8.02
2023-02-22T02:16:21.890Z,6.90
2023-02-22T02:18:49.153Z,7.82
2023-02-22T02:21:40.736Z,6.70
2023-02-22T02:24:40.467Z,8.68
2023-02-22T02:27:18.134Z,7.13
2023-02-22T02:30:22.481Z,6.65
2023-02-22T02:32:55.575Z,7.20
2023-02-22T02:35:35.666Z,7.45
2023-02-22T02:38:10.919Z,7.22
2023-02-22T02:40:47.327Z,6.18
2023-02-22T02:43:23.678Z,5.93
2023-02-22T02:45:58.823Z,8.27
2023-02-22T02:48:29.064Z,8.07
2023-02-22T02:50:59.364Z,7.07
2023-02-22T02:53:31.523Z,8.15
2023-02-22T02:55:59.070Z,7.85
2023-02-22T02:58:26.613Z,6.57
2023-02-22T03:00:56.909Z,7.57
2023-02-22T03:03:41.521Z,7.00
2023-02-22T03:06:42.205Z,7.35
2023-02-22T03:09:19.992Z,6.85
2023-02-22T03:11:59.734Z,7.93
2023-02-22T03:14:35.257Z,6.75
2023-02-22T03:17:08.884Z,6.75
2023-02-22T03:19:40.694Z,7.68
2023-02-22T03:27:14.508Z,6.60
2023-02-22T03:29:45.320Z,6.32
2023-02-22T03:32:17.088Z,6.80
2023-02-22T03:34:52.672Z,6.80
2023-02-22T03:37:23.369Z,7.88
2023-02-22T03:39:54.157Z,6.38
2023-02-22T03:42:24.138Z,8.23
2023-02-22T03:44:55.259Z,8.15
2023-02-22T03:47:28.508Z,7.13
2023-02-22T03:50:01.975Z,6.63
2023-02-22T03:52:28.972Z,8.65
2023-02-22T03:54:55.843Z,7.85
2023-02-22T03:57:30.933Z,7.53
2023-02-22T03:59:57.755Z,7.00
2023-02-22T04:02:24.561Z,7.97
2023-02-22T04:04:51.560Z,7.13
2023-02-22T04:07:19.797Z,7.47
2023-02-22T04:09:46.783Z,6.72
2023-02-22T04:12:13.586Z,8.02
2023-02-22T04:14:40.575Z,8.40
2023-02-22T04:17:07.456Z,7.05
2023-02-22T04:19:35.971Z,7.43
2023-02-22T04:22:03.141Z,7.53
2023-02-22T04:24:31.289Z,7.38
2023-02-22T04:26:58.245Z,8.18
2023-02-22T04:29:25.076Z,7.13
2023-02-22T04:31:52.652Z,9.25
2023-02-22T04:34:19.369Z,9.48
2023-02-22T04:36:46.421Z,9.10
2023-02-22T04:39:13.194Z,8.48
2023-02-22T04:42:00.130Z,8.35
2023-02-22T04:44:26.915Z,7.53
2023-02-22T04:46:53.836Z,8.48
2023-02-22T04:49:20.720Z,8.07
2023-02-22T04:51:47.531Z,8.40
2023-02-22T04:54:14.557Z,8.93
2023-02-22T04:56:41.471Z,9.52
2023-02-22T04:59:09.700Z,9.13
2023-02-22T05:01:37.880Z,9.98
2023-02-22T05:04:05.551Z,9.52
2023-02-22T05:06:32.439Z,9.57
2023-02-22T05:08:59.407Z,9.30
2023-02-22T05:11:26.320Z,9.35
2023-02-22T05:13:53.088Z,9.93
2023-02-22T05:16:21.502Z,9.45
2023-02-22T05:18:48.378Z,8.30
2023-02-22T05:21:15.373Z,9.23
2023-02-22T05:23:42.406Z,9.45
2023-02-22T05:26:11.643Z,9.65
2023-02-22T05:28:38.833Z,9.93
2023-02-22T05:31:07.372Z,9.98
2023-02-22T05:33:43.128Z,9.82
2023-02-22T05:36:10.249Z,10.02
2023-02-22T05:38:43.528Z,10.85
2023-02-22T05:41:11.454Z,9.68
2023-02-22T05:43:41.932Z,11.07
2023-02-22T05:46:09.075Z,9.93
2023-02-22T05:48:37.298Z,8.38
2023-02-22T05:51:04.494Z,9.20
2023-02-22T05:53:31.282Z,7.13
2023-02-22T05:55:58.084Z,11.02
2023-02-22T05:58:24.818Z,10.23
2023-02-22T06:00:51.694Z,10.07
2023-02-22T06:03:18.532Z,10.57
2023-02-22T06:05:46.992Z,9.40
2023-02-22T06:08:13.862Z,9.60
2023-02-22T06:10:41.072Z,10.05
2023-02-22T06:13:07.812Z,12.35
2023-02-22T06:15:34.601Z,12.65
2023-02-22T06:18:02.290Z,12.02
2023-02-22T06:20:31.417Z,13.25
2023-02-22T06:22:59.694Z,13.82
2023-02-22T06:25:28.091Z,11.68
2023-02-22T06:27:54.985Z,11.88
2023-02-22T06:30:23.020Z,11.32
2023-02-22T06:32:50.261Z,13.18
2023-02-22T06:35:17.413Z,11.68
2023-02-22T06:37:44.601Z,9.35
2023-02-22T06:40:13.498Z,11.02
2023-02-22T06:42:40.855Z,9.95
2023-02-22T06:45:08.725Z,12.30
2023-02-22T06:47:39.588Z,10.02
2023-02-22T06:50:07.213Z,10.20
2023-02-22T06:52:34.079Z,9.27
2023-02-22T06:55:01.120Z,8.15
2023-02-22T06:57:29.475Z,9.45
2023-02-22T06:59:56.254Z,11.20
2023-02-22T07:02:23.128Z,8.05
2023-02-22T07:04:50.032Z,7.93
2023-02-22T07:07:22.657Z,8.18
2023-02-22T07:09:49.581Z,7.90
2023-02-22T07:12:16.749Z,7.28
2023-02-22T07:14:45.070Z,7.15
2023-02-22T07:17:11.958Z,7.03
2023-02-22T07:19:39.047Z,8.15
2023-02-22T07:22:06.184Z,6.90
2023-02-22T07:24:35.104Z,8.63
2023-02-22T07:27:02.685Z,9.02
2023-02-22T07:29:32.345Z,6.43
2023-02-22T07:32:00.542Z,7.50
2023-02-22T07:34:27.356Z,6.57
2023-02-22T07:36:54.421Z,7.40
2023-02-22T07:39:21.093Z,8.90
2023-02-22T07:41:48.065Z,8.95
2023-02-22T07:44:15.311Z,8.30
2023-02-22T07:46:42.164Z,7.45
2023-02-22T07:49:10.473Z,8.65
2023-02-22T07:51:37.369Z,8.63
2023-02-22T07:54:04.491Z,6.30
2023-02-22T07:56:31.377Z,8.50
2023-02-22T07:58:58.178Z,8.98
2023-02-22T08:01:25.226Z,7.78
2023-02-22T08:03:52.777Z,9.65
2023-02-22T08:06:21.088Z,9.65
2023-02-22T08:08:47.831Z,8.63
2023-02-22T08:11:15.092Z,8.20
2023-02-22T08:13:41.893Z,8.57
2023-02-22T08:16:09.194Z,8.93
2023-02-22T08:18:38.273Z,8.32
2023-02-22T08:21:05.578Z,8.40
2023-02-22T08:23:34.458Z,8.32
2023-02-22T08:26:07.019Z,9.63
2023-02-22T08:28:33.811Z,8.25
2023-02-22T08:31:00.492Z,7.45
2023-02-22T08:33:27.468Z,8.77
2023-02-22T08:35:54.818Z,11.27
2023-02-22T08:38:23.682Z,11.50
2023-02-22T08:40:52.141Z,10.68
2023-02-22T08:43:20.074Z,9.73
2023-02-22T08:45:48.175Z,9.13
2023-02-22T08:48:16.617Z,11.18
2023-02-22T08:50:44.518Z,9.23
2023-02-22T08:53:13.784Z,8.88
2023-02-22T08:55:41.836Z,10.68
2023-02-22T08:58:10.687Z,11.88
2023-02-22T09:00:39.057Z,8.68
2023-02-22T09:03:07.461Z,7.35
2023-02-22T09:05:34.187Z,8.50
2023-02-22T09:08:02.104Z,7.85
2023-02-22T09:10:32.152Z,9.65
2023-02-22T09:13:00.949Z,8.18
2023-02-22T09:15:30.323Z,8.57
2023-02-22T09:17:57.213Z,8.48
2023-02-22T09:20:25.190Z,6.78
2023-02-22T09:22:52.344Z,7.28
2023-02-22T09:25:22.209Z,7.22
2023-02-22T09:27:49.921Z,8.18
2023-02-22T09:30:19.074Z,7.95
2023-02-22T09:32:47.619Z,8.32
2023-02-22T09:35:14.476Z,7.30
2023-02-22T09:37:45.048Z,8.35
2023-02-22T09:40:17.706Z,8.07
2023-02-22T09:42:53.345Z,8.75
2023-02-22T09:45:23.467Z,7.13
2023-02-22T09:47:57.673Z,7.85
2023-02-22T09:50:29.206Z,8.13
2023-02-22T09:53:05.132Z,8.05
2023-02-22T09:55:39.391Z,8.48
2023-02-22T09:58:16.249Z,6.93
2023-02-22T10:00:45.694Z,7.75
2023-02-22T10:03:22.869Z,7.55
2023-02-22T10:05:54.557Z,7.55
2023-02-22T10:08:21.792Z,7.53
2023-02-22T10:11:01.452Z,9.05
2023-02-22T10:13:42.177Z,8.00
2023-02-22T10:16:16.412Z,9.52
2023-02-22T10:19:08.222Z,9.27
2023-02-22T10:22:04.956Z,9.20
2023-02-22T10:24:42.669Z,7.78
2023-02-22T10:27:16.323Z,8.95
2023-02-22T10:29:46.756Z,10.02
2023-02-22T10:32:20.300Z,8.00
2023-02-22T10:34:51.644Z,9.48
2023-02-22T10:37:26.080Z,11.07
2023-02-22T10:39:59.180Z,9.85
2023-02-22T10:42:27.900Z,8.70
2023-02-22T10:44:54.856Z,9.77
2023-02-22T10:47:22.214Z,10.07
2023-02-22T10:49:55.834Z,9.25
2023-02-22T10:52:26.174Z,9.25
2023-02-22T10:55:13.599Z,10.15
2023-02-22T10:57:44.479Z,8.68
2023-02-22T11:00:21.068Z,9.88
2023-02-22T11:02:53.806Z,9.98
2023-02-22T11:05:36.790Z,8.93
2023-02-22T11:08:28.127Z,8.05
2023-02-22T11:10:56.707Z,10.00
2023-02-22T11:13:29.490Z,10.65
2023-02-22T11:16:00.233Z,9.98
2023-02-22T11:18:30.408Z,8.60
2023-02-22T11:21:05.121Z,9.00
2023-02-22T11:23:32.392Z,9.43
2023-02-22T11:26:07.379Z,8.50
2023-02-22T11:28:34.753Z,7.78
2023-02-22T11:31:13.688Z,6.97
2023-02-22T11:33:48.330Z,7.80
2023-02-22T11:36:30.789Z,7.57
2023-02-22T11:39:00.853Z,8.77
2023-02-22T11:41:29.180Z,7.20
2023-02-22T11:44:13.145Z,7.93
2023-02-22T11:46:42.027Z,7.97
2023-02-22T11:49:10.552Z,7.72
2023-02-22T11:51:50.650Z,7.18
2023-02-22T11:54:38.138Z,7.00
2023-02-22T11:57:16.496Z,7.88
2023-02-22T11:59:55.805Z,7.70
2023-02-22T12:02:56.861Z,7.75
2023-02-22T12:05:59.592Z,6.07
2023-02-22T12:08:37.215Z,8.15
2023-02-22T12:11:12.933Z,8.65
2023-02-22T12:14:06.162Z,7.50
2023-02-22T12:16:44.311Z,5.88
2023-02-22T12:19:22.222Z,8.00
2023-02-22T12:21:55.684Z,7.88
2023-02-22T12:24:27.771Z,8.68
2023-02-22T12:27:01.732Z,7.75
2023-02-22T12:29:37.662Z,6.47
2023-02-22T12:32:10.837Z,6.78
2023-02-22T12:34:41.543Z,6.03
2023-02-22T12:37:16.788Z,7.35
2023-02-22T12:39:54.265Z,5.68
2023-02-22T12:42:29.631Z,7.97
2023-02-22T12:45:01.098Z,6.43
2023-02-22T12:47:37.005Z,5.97
2023-02-22T12:50:15.558Z,7.18
2023-02-22T12:52:46.948Z,7.57
2023-02-22T12:55:21.401Z,6.15
2023-02-22T12:57:57.207Z,6.32
2023-02-22T13:00:30.549Z,6.18
2023-02-22T13:03:03.663Z,6.95
2023-02-22T13:05:36.565Z,6.93
2023-02-22T13:08:22.826Z,7.53
2023-02-22T13:11:03.227Z,6.25
2023-02-22T13:13:42.736Z,6.10
2023-02-22T13:16:21.995Z,6.90
2023-02-22T13:18:55.456Z,6.18
2023-02-22T13:21:29.511Z,6.03
2023-02-22T13:24:05.253Z,6.80
2023-02-22T13:26:40.147Z,5.95
2023-02-22T13:29:13.784Z,5.85
2023-02-22T13:31:59.414Z,7.53
2023-02-22T13:34:54.281Z,6.03
2023-02-22T13:37:49.678Z,6.47
2023-02-22T13:40:45.477Z,4.97
2023-02-22T13:43:39.024Z,6.28
2023-02-22T13:46:21.035Z,5.32
2023-02-22T13:49:08.451Z,6.18
2023-02-22T13:51:47.998Z,6.13
2023-02-22T13:54:20.990Z,6.78
2023-02-22T13:56:51.298Z,7.55
2023-02-22T13:59:26.269Z,6.70
2023-02-22T14:01:55.036Z,5.43
2023-02-22T14:04:44.174Z,5.47
2023-02-22T14:07:47.361Z,6.53
2023-02-22T14:10:37.612Z,6.97
2023-02-22T14:13:05.560Z,5.50
2023-02-22T14:15:35.495Z,5.63
2023-02-22T14:18:04.388Z,6.07
2023-02-22T14:20:35.217Z,6.40
2023-02-22T14:23:31.700Z,7.25
2023-02-22T14:26:11.296Z,7.22
2023-02-22T14:28:46.273Z,7.22
2023-02-22T14:31:33.346Z,6.43
2023-02-22T14:34:06.283Z,6.55
2023-02-22T14:36:36.637Z,7.22
2023-02-22T14:39:11.539Z,6.90
2023-02-22T14:41:40.914Z,5.55
2023-02-22T14:44:12.904Z,6.75
2023-02-22T14:46:44.136Z,5.82
2023-02-22T14:49:18.984Z,7.20
2023-02-22T14:51:53.455Z,6.50
2023-02-22T14:54:26.713Z,6.22
2023-02-22T14:57:12.106Z,6.50
2023-02-22T14:59:52.698Z,5.80
2023-02-22T15:02:25.893Z,6.43
2023-02-22T15:04:54.796Z,6.30
2023-02-22T15:07:27.474Z,6.70
2023-02-22T15:10:26.083Z,6.63
2023-02-22T15:13:08.749Z,6.85
2023-02-22T15:15:39.563Z,7.35
2023-02-22T15:18:27.131Z,5.28
2023-02-22T15:20:58.195Z,5.93
2023-02-22T15:23:30.348Z,6.60
2023-02-22T15:25:58.225Z,5.32
2023-02-22T15:28:28.969Z,5.82
2023-02-22T15:31:18.529Z,7.07
2023-02-22T15:33:47.164Z,6.70
2023-02-22T15:36:17.570Z,5.95
2023-02-22T15:38:49.216Z,6.93
2023-02-22T15:41:22.173Z,6.05
2023-02-22T15:44:05.436Z,5.93
2023-02-22T15:46:35.129Z,6.00
2023-02-22T15:49:20.845Z,6.20
2023-02-22T15:51:59.123Z,6.63
2023-02-22T15:54:27.765Z,6.55
2023-02-22T15:56:56.496Z,7.05
2023-02-22T15:59:29.623Z,6.13
2023-02-22T16:01:58.531Z,6.57
2023-02-22T16:04:29.019Z,7.43
2023-02-22T16:07:05.138Z,6.35
2023-02-22T16:09:33.237Z,7.20
2023-02-22T16:12:22.192Z,6.50
2023-02-22T16:14:50.399Z,6.88
2023-02-22T16:17:35.927Z,6.05
2023-02-22T16:20:32.617Z,7.38
2023-02-22T16:23:00.715Z,6.05
2023-02-22T16:25:32.951Z,7.10
2023-02-22T16:28:03.123Z,5.57
2023-02-22T16:30:33.129Z,5.80
2023-02-22T16:33:05.516Z,7.43
2023-02-22T16:35:35.459Z,6.07
2023-02-22T16:38:04.513Z,6.63
2023-02-22T16:40:34.550Z,7.63
2023-02-22T16:43:02.891Z,5.90
2023-02-22T16:45:29.797Z,5.80
2023-02-22T16:47:56.610Z,6.75
2023-02-22T16:50:23.878Z,6.82
2023-02-22T16:52:55.160Z,6.95
2023-02-22T16:55:22.415Z,6.97
2023-02-22T16:57:49.927Z,5.78
2023-02-22T17:00:19.560Z,6.50
2023-02-22T17:02:46.311Z,6.95
2023-02-22T17:05:15.263Z,6.15
2023-02-22T17:07:42.460Z,7.65
2023-02-22T17:10:15.420Z,6.93
2023-02-22T17:12:44.480Z,7.55
2023-02-22T17:15:20.584Z,7.22
2023-02-22T17:17:47.439Z,7.53
2023-02-22T17:20:14.163Z,7.30
2023-02-22T17:22:40.919Z,7.90
2023-02-22T17:25:21.920Z,8.20
2023-02-22T17:27:48.846Z,8.25
2023-02-22T17:30:17.033Z,8.15
2023-02-22T17:32:44.213Z,7.72
2023-02-22T17:35:10.980Z,7.70
2023-02-22T17:37:38.313Z,8.02
2023-02-22T17:40:06.131Z,7.70
2023-02-22T17:42:34.302Z,8.63
2023-02-22T17:45:00.979Z,9.52
2023-02-22T17:47:27.724Z,9.30
2023-02-22T17:49:54.424Z,9.23
2023-02-22T17:52:21.166Z,9.35
2023-02-22T17:54:47.938Z,8.50
2023-02-22T17:57:16.652Z,9.13
2023-02-22T17:59:44.775Z,8.10
2023-02-22T18:02:11.517Z,8.02
2023-02-22T18:04:40.376Z,7.75
2023-02-22T18:07:07.269Z,9.75
2023-02-22T18:09:38.293Z,10.18
2023-02-22T18:12:05.329Z,7.03
2023-02-22T18:14:32.015Z,7.65
2023-02-22T18:17:01.704Z,9.02
2023-02-22T18:19:29.237Z,9.60
2023-02-22T18:22:00.276Z,8.55
2023-02-22T18:24:27.015Z,8.65
2023-02-22T18:26:53.833Z,9.90
2023-02-22T18:29:20.591Z,10.93
2023-02-22T18:31:47.289Z,9.82
2023-02-22T18:34:16.024Z,8.65
2023-02-22T18:36:44.538Z,10.05
2023-02-22T18:39:11.788Z,10.13
2023-02-22T18:41:38.951Z,10.65
2023-02-22T18:44:06.565Z,10.02
2023-02-22T18:46:33.342Z,10.35
2023-02-22T18:49:00.145Z,9.57
2023-02-22T18:51:28.840Z,9.85
2023-02-22T18:54:00.412Z,13.07
2023-02-22T18:56:31.081Z,11.85
2023-02-22T18:58:59.691Z,13.45
2023-02-22T19:01:27.145Z,12.65
2023-02-22T19:03:54.124Z,11.88
2023-02-22T19:06:23.507Z,12.73
2023-02-22T19:08:51.861Z,13.50
2023-02-22T19:11:21.998Z,14.05
2023-02-22T19:13:51.943Z,15.43
2023-02-22T19:16:22.602Z,14.95
2023-02-22T19:18:52.360Z,15.32
2023-02-22T19:21:20.220Z,13.75
2023-02-22T19:23:48.642Z,15.57
2023-02-22T19:26:30.924Z,15.57
2023-02-22T19:28:59.693Z,15.63
2023-02-22T19:31:31.302Z,14.90
2023-02-22T19:34:01.358Z,13.85
2023-02-22T19:36:30.367Z,14.50
2023-02-22T19:39:02.674Z,13.20
2023-02-22T19:41:32.279Z,14.60
2023-02-22T19:43:59.768Z,13.15
2023-02-22T19:46:26.741Z,13.00
2023-02-22T19:48:55.383Z,15.02
2023-02-22T19:51:25.505Z,16.63
2023-02-22T19:53:53.551Z,15.40
2023-02-22T19:56:27.091Z,16.45
2023-02-22T19:58:57.605Z,14.40
2023-02-22T20:01:26.057Z,14.50
2023-02-22T20:03:55.242Z,15.90
2023-02-22T20:06:26.511Z,15.50
2023-02-22T20:08:55.138Z,15.15
2023-02-22T20:11:22.737Z,16.73
2023-02-22T20:13:52.738Z,13.15
2023-02-22T20:16:21.468Z,18.20
2023-02-22T20:18:49.031Z,16.48
2023-02-22T20:21:20.474Z,17.13
2023-02-22T20:23:48.156Z,15.68
2023-02-22T20:26:17.364Z,16.25
2023-02-22T20:28:44.404Z,17.10
2023-02-22T20:31:13.865Z,14.43
2023-02-22T20:33:42.808Z,17.98
2023-02-22T20:36:13.148Z,16.02
2023-02-22T20:38:40.329Z,15.82
2023-02-22T20:41:08.136Z,15.57
2023-02-22T20:43:35.650Z,17.73
2023-02-22T20:46:02.538Z,18.35
2023-02-22T20:48:30.093Z,15.90
2023-02-22T20:51:06.848Z,17.17
2023-02-22T20:53:34.535Z,17.52
2023-02-22T20:56:01.662Z,17.55
2023-02-22T20:58:29.324Z,17.77
2023-02-22T21:00:56.089Z,16.75
2023-02-22T21:03:23.006Z,16.92
2023-02-22T21:05:49.821Z,16.27
2023-02-22T21:08:17.978Z,15.82
2023-02-22T21:10:47.256Z,18.67
2023-02-22T21:13:14.614Z,17.27
2023-02-22T21:15:44.007Z,16.17
2023-02-22T21:18:13.482Z,18.40
2023-02-22T21:20:42.780Z,17.45
2023-02-22T21:23:19.608Z,17.65
2023-02-22T21:25:53.915Z,14.73
2023-02-22T21:28:20.859Z,16.85
2023-02-22T21:30:47.743Z,16.45
2023-02-22T21:33:17.640Z,16.83
2023-02-22T21:35:47.230Z,18.42
2023-02-22T21:38:17.368Z,18.02
2023-02-22T21:40:46.477Z,18.88
2023-02-22T21:43:25.147Z,19.70
2023-02-22T21:45:51.904Z,17.63
2023-02-22T21:48:18.662Z,15.70
2023-02-22T21:50:45.499Z,18.02
2023-02-22T21:53:12.842Z,16.08
2023-02-22T21:55:44.276Z,16.60
2023-02-22T21:58:16.180Z,17.08
2023-02-22T22:00:44.581Z,17.67
2023-02-22T22:03:17.131Z,17.33
2023-02-22T22:05:46.161Z,16.80
2023-02-22T22:08:19.454Z,16.42
2023-02-22T22:10:51.520Z,18.33
2023-02-22T22:13:19.961Z,18.10
2023-02-22T22:15:46.743Z,15.43
2023-02-22T22:18:13.642Z,15.40
2023-02-22T22:20:40.396Z,16.38
2023-02-22T22:23:07.632Z,17.30
2023-02-22T22:25:38.269Z,16.40
2023-02-22T22:28:07.603Z,17.25
2023-02-22T22:30:37.099Z,16.33
2023-02-22T22:33:07.532Z,18.83
2023-02-22T22:35:34.241Z,17.15
2023-02-22T22:38:01.219Z,15.50
2023-02-22T22:40:28.646Z,17.25
2023-02-22T22:42:55.718Z,17.65
2023-02-22T22:45:25.583Z,17.90
2023-02-22T22:47:53.753Z,16.63
2023-02-22T22:50:26.399Z,18.42
2023-02-22T22:52:55.510Z,17.92
2023-02-22T22:55:24.307Z,14.90
2023-02-22T22:57:54.127Z,16.60
2023-02-22T23:00:37.757Z,14.30
2023-02-22T23:03:07.071Z,16.58
2023-02-22T23:05:46.403Z,18.48
2023-02-22T23:08:13.326Z,16.10
2023-02-22T23:10:41.215Z,16.73
2023-02-22T23:13:15.584Z,18.90
2023-02-22T23:15:43.358Z,17.95
2023-02-22T23:18:12.453Z,14.18
2023-02-22T23:20:39.236Z,14.50
2023-02-22T23:23:06.265Z,15.05
2023-02-22T23:25:33.608Z,15.15
2023-02-22T23:28:00.734Z,14.52
2023-02-22T23:30:27.671Z,17.10
2023-02-22T23:32:54.429Z,16.08
2023-02-22T23:35:22.712Z,17.15
2023-02-22T23:37:57.952Z,15.85
2023-02-22T23:40:25.994Z,17.33
2023-02-22T23:42:56.506Z,15.68
2023-02-22T23:45:24.442Z,15.75
2023-02-22T23:47:54.789Z,16.77
2023-02-22T23:50:25.787Z,14.43
2023-02-22T23:52:58.476Z,18.42
2023-02-22T23:55:26.449Z,14.98
